sensor_id;sensor_type;location;lat;lon;timestamp;pressure;altitude;pressure_sealevel;temperature;humidity
29383;BME280;16365;51.598;7.668;2023-02-11T00:02:12;102699.59;;;13.07;43.95
29383;BME280;16365;51.598;7.668;2023-02-11T00:04:40;102701.81;;;13.05;43.07
29383;BME280;16365;51.598;7.668;2023-02-11T00:07:06;102691.81;;;13.04;43.61
29383;BME280;16365;51.598;7.668;2023-02-11T00:09:32;102691.81;;;13.04;43.70
29383;BME280;16365;51.598;7.668;2023-02-11T00:11:59;102682.94;;;13.02;43.65
29383;BME280;16365;51.598;7.668;2023-02-11T00:14:25;102678.50;;;13.01;43.93
29383;BME280;16365;51.598;7.668;2023-02-11T00:16:52;102673.22;;;12.99;43.70
29383;BME280;16365;51.598;7.668;2023-02-11T00:19:18;102677.44;;;12.97;43.68
29383;BME280;16365;51.598;7.668;2023-02-11T00:21:45;102672.16;;;12.95;43.92
29383;BME280;16365;51.598;7.668;2023-02-11T00:24:11;102665.22;;;12.93;43.91
29383;BME280;16365;51.598;7.668;2023-02-11T00:26:38;102671.09;;;12.91;44.32
29383;BME280;16365;51.598;7.668;2023-02-11T00:29:08;102673.34;;;12.89;43.87
29383;BME280;16365;51.598;7.668;2023-02-11T00:31:34;102682.81;;;12.88;43.25
29383;BME280;16365;51.598;7.668;2023-02-11T00:34:01;102683.13;;;12.86;43.41
29383;BME280;16365;51.598;7.668;2023-02-11T00:36:28;102690.34;;;12.88;43.37
29383;BME280;16365;51.598;7.668;2023-02-11T00:38:55;102689.53;;;12.87;43.82
29383;BME280;16365;51.598;7.668;2023-02-11T00:41:22;102692.31;;;12.87;43.61
29383;BME280;16365;51.598;7.668;2023-02-11T00:43:49;102685.06;;;12.86;43.92
29383;BME280;16365;51.598;7.668;2023-02-11T00:46:16;102677.56;;;12.86;43.70
29383;BME280;16365;51.598;7.668;2023-02-11T00:48:42;102681.69;;;12.89;43.93
29383;BME280;16365;51.598;7.668;2023-02-11T00:51:09;102676.94;;;12.90;43.75
29383;BME280;16365;51.598;7.668;2023-02-11T00:53:35;102665.81;;;12.90;43.86
29383;BME280;16365;51.598;7.668;2023-02-11T00:56:02;102666.38;;;12.92;43.68
29383;BME280;16365;51.598;7.668;2023-02-11T00:58:29;102659.66;;;12.93;43.50
29383;BME280;16365;51.598;7.668;2023-02-11T01:00:55;102669.97;;;12.92;44.58
29383;BME280;16365;51.598;7.668;2023-02-11T01:03:24;102663.78;;;12.95;43.78
29383;BME280;16365;51.598;7.668;2023-02-11T01:05:56;102666.56;;;12.95;43.29
29383;BME280;16365;51.598;7.668;2023-02-11T01:08:24;102672.97;;;12.96;44.49
29383;BME280;16365;51.598;7.668;2023-02-11T01:10:55;102676.31;;;12.98;43.81
29383;BME280;16365;51.598;7.668;2023-02-11T01:13:22;102679.09;;;12.98;43.69
29383;BME280;16365;51.598;7.668;2023-02-11T01:15:50;102673.22;;;12.99;44.08
29383;BME280;16365;51.598;7.668;2023-02-11T01:18:17;102667.66;;;12.99;43.53
29383;BME280;16365;51.598;7.668;2023-02-11T01:20:45;102672.09;;;13.00;43.54
29383;BME280;16365;51.598;7.668;2023-02-11T01:23:11;102668.19;;;13.01;44.01
29383;BME280;16365;51.598;7.668;2023-02-11T01:25:38;102665.69;;;13.00;44.25
29383;BME280;16365;51.598;7.668;2023-02-11T01:28:04;102670.97;;;13.01;43.97
29383;BME280;16365;51.598;7.668;2023-02-11T01:30:31;102667.38;;;13.01;44.14
29383;BME280;16365;51.598;7.668;2023-02-11T01:32:57;102676.56;;;13.01;43.61
29383;BME280;16365;51.598;7.668;2023-02-11T01:35:24;102682.94;;;13.02;43.57
29383;BME280;16365;51.598;7.668;2023-02-11T01:37:50;102677.38;;;13.02;43.79
29383;BME280;16365;51.598;7.668;2023-02-11T01:40:17;102679.34;;;13.01;44.02
29383;BME280;16365;51.598;7.668;2023-02-11T01:42:43;102682.94;;;13.02;43.46
29383;BME280;16365;51.598;7.668;2023-02-11T01:47:57;102682.94;;;13.02;43.50
29383;BME280;16365;51.598;7.668;2023-02-11T01:50:24;102685.72;;;13.02;43.41
29383;BME280;16365;51.598;7.668;2023-02-11T01:52:52;102687.69;;;13.01;44.19
29383;BME280;16365;51.598;7.668;2023-02-11T01:55:18;102685.72;;;13.02;44.12
29383;BME280;16365;51.598;7.668;2023-02-11T01:58:23;102679.34;;;13.01;43.97
29383;BME280;16365;51.598;7.668;2023-02-11T02:00:52;102663.47;;;13.02;43.81
29383;BME280;16365;51.598;7.668;2023-02-11T02:03:19;102644.78;;;13.02;43.81
29383;BME280;16365;51.598;7.668;2023-02-11T02:05:52;102626.44;;;13.01;43.81
29383;BME280;16365;51.598;7.668;2023-02-11T02:08:46;102624.47;;;13.02;44.12
29383;BME280;16365;51.598;7.668;2023-02-11T02:11:18;102620.03;;;13.01;44.21
29383;BME280;16365;51.598;7.668;2023-02-11T02:13:44;102620.03;;;13.01;44.16
29383;BME280;16365;51.598;7.668;2023-02-11T02:16:12;102610.00;;;13.00;43.70
29383;BME280;16365;51.598;7.668;2023-02-11T02:23:45;102627.53;;;13.00;43.48
29383;BME280;16365;51.598;7.668;2023-02-11T02:34:08;102636.19;;;12.99;44.18
29383;BME280;16365;51.598;7.668;2023-02-11T02:39:48;102634.78;;;13.01;44.59
29383;BME280;16365;51.598;7.668;2023-02-11T02:42:15;102628.09;;;13.02;43.76
29383;BME280;16365;51.598;7.668;2023-02-11T02:44:48;102628.91;;;13.03;43.89
29383;BME280;16365;51.598;7.668;2023-02-11T02:47:15;102628.59;;;13.04;43.78
29383;BME280;16365;51.598;7.668;2023-02-11T02:49:41;102639.47;;;13.06;44.29
29383;BME280;16365;51.598;7.668;2023-02-11T02:52:32;102618.28;;;13.05;43.39
29383;BME280;16365;51.598;7.668;2023-02-11T02:55:02;102619.16;;;13.05;43.58
29383;BME280;16365;51.598;7.668;2023-02-11T02:58:07;102619.16;;;13.05;44.10
29383;BME280;16365;51.598;7.668;2023-02-11T03:00:29;102609.09;;;13.04;44.18
29383;BME280;16365;51.598;7.668;2023-02-11T03:08:35;102632.81;;;13.02;44.20
29383;BME280;16365;51.598;7.668;2023-02-11T03:11:11;102630.03;;;13.02;44.46
29383;BME280;16365;51.598;7.668;2023-02-11T03:13:43;102631.19;;;13.01;43.98
29383;BME280;16365;51.598;7.668;2023-02-11T03:16:16;102630.31;;;13.00;43.63
29383;BME280;16365;51.598;7.668;2023-02-11T03:18:46;102633.41;;;12.99;44.00
29383;BME280;16365;51.598;7.668;2023-02-11T03:21:20;102637.31;;;12.98;44.46
29383;BME280;16365;51.598;7.668;2023-02-11T03:24:23;102641.25;;;12.97;43.97
29383;BME280;16365;51.598;7.668;2023-02-11T03:26:43;102629.28;;;12.96;43.80
29383;BME280;16365;51.598;7.668;2023-02-11T03:36:55;102625.38;;;12.97;44.08
29383;BME280;16365;51.598;7.668;2023-02-11T03:39:24;102619.78;;;12.97;44.02
29383;BME280;16365;51.598;7.668;2023-02-11T03:41:52;102611.13;;;12.99;44.06
29383;BME280;16365;51.598;7.668;2023-02-11T03:44:20;102605.56;;;12.99;43.72
29383;BME280;16365;51.598;7.668;2023-02-11T03:46:51;102619.50;;;12.99;44.22
29383;BME280;16365;51.598;7.668;2023-02-11T03:49:22;102608.66;;;12.97;44.02
29383;BME280;16365;51.598;7.668;2023-02-11T03:51:53;102601.13;;;12.98;44.28
29383;BME280;16365;51.598;7.668;2023-02-11T03:54:26;102603.09;;;12.97;44.24
29383;BME280;16365;51.598;7.668;2023-02-11T03:56:56;102614.50;;;12.96;44.09
29383;BME280;16365;51.598;7.668;2023-02-11T03:59:23;102612.84;;;12.95;44.80
29383;BME280;16365;51.598;7.668;2023-02-11T04:01:50;102609.25;;;12.94;44.16
29383;BME280;16365;51.598;7.668;2023-02-11T04:04:18;102612.34;;;12.93;44.09
29383;BME280;16365;51.598;7.668;2023-02-11T04:06:45;102606.22;;;12.91;44.57
29383;BME280;16365;51.598;7.668;2023-02-11T04:09:14;102604.28;;;12.91;44.71
29383;BME280;16365;51.598;7.668;2023-02-11T04:11:42;102594.25;;;12.90;44.78
29383;BME280;16365;51.598;7.668;2023-02-11T04:14:09;102597.03;;;12.90;44.89
29383;BME280;16365;51.598;7.668;2023-02-11T04:16:35;102601.78;;;12.90;44.04
29383;BME280;16365;51.598;7.668;2023-02-11T04:19:03;102590.13;;;12.88;43.93
29383;BME280;16365;51.598;7.668;2023-02-11T04:21:29;102597.66;;;12.87;44.05
29383;BME280;16365;51.598;7.668;2023-02-11T04:23:56;102603.50;;;12.85;44.08
29383;BME280;16365;51.598;7.668;2023-02-11T04:26:22;102611.03;;;12.85;44.80
29383;BME280;16365;51.598;7.668;2023-02-11T04:28:48;102623.28;;;12.84;43.99
29383;BME280;16365;51.598;7.668;2023-02-11T04:31:16;102637.50;;;12.82;44.39
29383;BME280;16365;51.598;7.668;2023-02-11T04:33:45;102626.66;;;12.81;44.09
29383;BME280;16365;51.598;7.668;2023-02-11T04:36:17;102623.88;;;12.81;44.80
29383;BME280;16365;51.598;7.668;2023-02-11T04:38:44;102630.56;;;12.80;44.46
29383;BME280;16365;51.598;7.668;2023-02-11T04:41:10;102626.97;;;12.79;44.41
29383;BME280;16365;51.598;7.668;2023-02-11T04:43:36;102637.28;;;12.79;44.83
29383;BME280;16365;51.598;7.668;2023-02-11T04:46:02;102628.91;;;12.79;44.91
29383;BME280;16365;51.598;7.668;2023-02-11T04:48:29;102625.31;;;12.78;44.32
29383;BME280;16365;51.598;7.668;2023-02-11T04:50:55;102627.25;;;12.78;44.36
29383;BME280;16365;51.598;7.668;2023-02-11T04:53:21;102618.09;;;12.77;44.79
29383;BME280;16365;51.598;7.668;2023-02-11T04:55:48;102623.09;;;12.75;44.92
29383;BME280;16365;51.598;7.668;2023-02-11T04:58:17;102611.47;;;12.73;44.12
29383;BME280;16365;51.598;7.668;2023-02-11T05:00:43;102616.19;;;12.73;45.05
29383;BME280;16365;51.598;7.668;2023-02-11T05:03:09;102619.81;;;12.73;44.81
29383;BME280;16365;51.598;7.668;2023-02-11T05:05:39;102616.19;;;12.73;44.47
29383;BME280;16365;51.598;7.668;2023-02-11T05:08:07;102618.16;;;12.72;44.73
29383;BME280;16365;51.598;7.668;2023-02-11T05:10:33;102619.81;;;12.73;44.84
29383;BME280;16365;51.598;7.668;2023-02-11T05:13:00;102620.09;;;12.72;44.70
29383;BME280;16365;51.598;7.668;2023-02-11T05:15:26;102612.59;;;12.72;44.17
29383;BME280;16365;51.598;7.668;2023-02-11T05:17:53;102615.94;;;12.69;44.87
29383;BME280;16365;51.598;7.668;2023-02-11T05:20:20;102624.31;;;12.69;44.67
29383;BME280;16365;51.598;7.668;2023-02-11T05:22:46;102626.84;;;12.66;44.82
29383;BME280;16365;51.598;7.668;2023-02-11T05:25:12;102625.50;;;12.63;45.11
29383;BME280;16365;51.598;7.668;2023-02-11T05:27:39;102624.66;;;12.63;45.72
29383;BME280;16365;51.598;7.668;2023-02-11T05:30:05;102622.16;;;12.61;45.83
29383;BME280;16365;51.598;7.668;2023-02-11T05:32:32;102626.06;;;12.60;45.40
29383;BME280;16365;51.598;7.668;2023-02-11T05:34:58;102622.75;;;12.58;45.16
29383;BME280;16365;51.598;7.668;2023-02-11T05:37:25;102632.22;;;12.57;45.50
29383;BME280;16365;51.598;7.668;2023-02-11T05:39:51;102628.59;;;12.56;45.60
29383;BME280;16365;51.598;7.668;2023-02-11T05:42:17;102623.84;;;12.57;45.66
29383;BME280;16365;51.598;7.668;2023-02-11T05:44:44;102621.38;;;12.55;45.51
29383;BME280;16365;51.598;7.668;2023-02-11T05:47:10;102620.25;;;12.56;44.75
29383;BME280;16365;51.598;7.668;2023-02-11T05:49:36;102613.03;;;12.55;45.28
29383;BME280;16365;51.598;7.668;2023-02-11T05:52:03;102612.22;;;12.55;46.03
29383;BME280;16365;51.598;7.668;2023-02-11T05:54:29;102613.34;;;12.54;45.00
29383;BME280;16365;51.598;7.668;2023-02-11T05:56:55;102614.47;;;12.53;45.43
29383;BME280;16365;51.598;7.668;2023-02-11T05:59:22;102619.22;;;12.52;45.35
29383;BME280;16365;51.598;7.668;2023-02-11T06:01:48;102621.44;;;12.50;45.49
29383;BME280;16365;51.598;7.668;2023-02-11T06:04:14;102620.63;;;12.50;45.45
29383;BME280;16365;51.598;7.668;2023-02-11T06:06:41;102615.34;;;12.48;45.60
29383;BME280;16365;51.598;7.668;2023-02-11T06:09:08;102619.22;;;12.47;45.53
29383;BME280;16365;51.598;7.668;2023-02-11T06:11:34;102613.66;;;12.47;45.42
29383;BME280;16365;51.598;7.668;2023-02-11T06:14:01;102610.88;;;12.47;45.04
29383;BME280;16365;51.598;7.668;2023-02-11T06:16:27;102612.03;;;12.46;45.19
29383;BME280;16365;51.598;7.668;2023-02-11T06:18:54;102604.50;;;12.47;45.22
29383;BME280;16365;51.598;7.668;2023-02-11T06:21:20;102610.06;;;12.47;45.10
29383;BME280;16365;51.598;7.668;2023-02-11T06:23:46;102609.25;;;12.46;45.15
29383;BME280;16365;51.598;7.668;2023-02-11T06:26:17;102610.38;;;12.45;45.49
29383;BME280;16365;51.598;7.668;2023-02-11T06:28:44;102605.94;;;12.44;45.56
29383;BME280;16365;51.598;7.668;2023-02-11T06:31:12;102610.38;;;12.45;45.81
29383;BME280;16365;51.598;7.668;2023-02-11T06:33:38;102610.38;;;12.45;45.16
29383;BME280;16365;51.598;7.668;2023-02-11T06:36:14;102594.81;;;12.44;45.71
29383;BME280;16365;51.598;7.668;2023-02-11T06:38:40;102603.16;;;12.44;45.72
29383;BME280;16365;51.598;7.668;2023-02-11T06:41:10;102603.97;;;12.45;45.74
29383;BME280;16365;51.598;7.668;2023-02-11T06:43:37;102613.16;;;12.45;45.65
29383;BME280;16365;51.598;7.668;2023-02-11T06:46:04;102613.16;;;12.45;45.69
29383;BME280;16365;51.598;7.668;2023-02-11T06:48:30;102614.81;;;12.46;45.52
29383;BME280;16365;51.598;7.668;2023-02-11T06:50:56;102622.31;;;12.46;44.98
29383;BME280;16365;51.598;7.668;2023-02-11T06:53:26;102630.97;;;12.44;45.31
29383;BME280;16365;51.598;7.668;2023-02-11T06:55:52;102622.63;;;12.44;45.11
29383;BME280;16365;51.598;7.668;2023-02-11T06:58:19;102620.97;;;12.43;45.20
29383;BME280;16365;51.598;7.668;2023-02-11T07:00:45;102619.84;;;12.44;45.67
29383;BME280;16365;51.598;7.668;2023-02-11T07:03:12;102618.72;;;12.45;45.19
29383;BME280;16365;51.598;7.668;2023-02-11T07:05:41;102627.06;;;12.45;45.72
29383;BME280;16365;51.598;7.668;2023-02-11T07:08:07;102623.16;;;12.46;45.42
29383;BME280;16365;51.598;7.668;2023-02-11T07:10:34;102622.31;;;12.46;45.52
29383;BME280;16365;51.598;7.668;2023-02-11T07:13:03;102617.59;;;12.46;46.01
29383;BME280;16365;51.598;7.668;2023-02-11T07:15:29;102621.19;;;12.47;45.39
29383;BME280;16365;51.598;7.668;2023-02-11T07:17:56;102617.59;;;12.46;45.74
29383;BME280;16365;51.598;7.668;2023-02-11T07:20:23;102617.31;;;12.48;45.50
29383;BME280;16365;51.598;7.668;2023-02-11T07:22:49;102624.22;;;12.50;45.97
29383;BME280;16365;51.598;7.668;2023-02-11T07:25:15;102627.84;;;12.51;45.15
29383;BME280;16365;51.598;7.668;2023-02-11T07:27:42;102628.38;;;12.53;45.87
29383;BME280;16365;51.598;7.668;2023-02-11T07:30:09;102629.22;;;12.53;45.50
29383;BME280;16365;51.598;7.668;2023-02-11T07:32:35;102632.50;;;12.55;45.74
29383;BME280;16365;51.598;7.668;2023-02-11T07:35:02;102630.56;;;12.56;45.46
29383;BME280;16365;51.598;7.668;2023-02-11T07:37:29;102639.47;;;12.58;45.62
29383;BME280;16365;51.598;7.668;2023-02-11T07:39:55;102642.25;;;12.58;45.63
29383;BME280;16365;51.598;7.668;2023-02-11T07:42:22;102650.59;;;12.58;46.10
29383;BME280;16365;51.598;7.668;2023-02-11T07:44:48;102646.69;;;12.59;45.66
29383;BME280;16365;51.598;7.668;2023-02-11T07:47:15;102646.38;;;12.60;45.65
29383;BME280;16365;51.598;7.668;2023-02-11T07:49:42;102643.31;;;12.62;45.81
29383;BME280;16365;51.598;7.668;2023-02-11T07:52:08;102654.13;;;12.64;45.91
29383;BME280;16365;51.598;7.668;2023-02-11T07:54:34;102649.09;;;12.66;46.17
29383;BME280;16365;51.598;7.668;2023-02-11T07:57:01;102647.97;;;12.67;45.61
29383;BME280;16365;51.598;7.668;2023-02-11T07:59:27;102644.91;;;12.68;46.18
29383;BME280;16365;51.598;7.668;2023-02-11T08:01:53;102652.97;;;12.70;46.06
29383;BME280;16365;51.598;7.668;2023-02-11T08:04:20;102660.72;;;12.73;45.58
29383;BME280;16365;51.598;7.668;2023-02-11T08:06:46;102663.50;;;12.73;45.53
29383;BME280;16365;51.598;7.668;2023-02-11T08:09:13;102654.34;;;12.72;46.08
29383;BME280;16365;51.598;7.668;2023-02-11T08:11:41;102662.38;;;12.74;45.87
29383;BME280;16365;51.598;7.668;2023-02-11T08:14:08;102658.78;;;12.73;45.76
29383;BME280;16365;51.598;7.668;2023-02-11T08:16:35;102658.47;;;12.75;45.49
29383;BME280;16365;51.598;7.668;2023-02-11T08:19:03;102662.06;;;12.75;45.98
29383;BME280;16365;51.598;7.668;2023-02-11T08:21:29;102678.50;;;12.77;45.51
29383;BME280;16365;51.598;7.668;2023-02-11T08:23:56;102672.63;;;12.78;46.34
29383;BME280;16365;51.598;7.668;2023-02-11T08:26:27;102675.41;;;12.78;46.23
29383;BME280;16365;51.598;7.668;2023-02-11T08:28:54;102682.31;;;12.81;45.38
29383;BME280;16365;51.598;7.668;2023-02-11T08:31:22;102685.09;;;12.81;45.53
29383;BME280;16365;51.598;7.668;2023-02-11T08:33:49;102702.38;;;12.83;45.79
29383;BME280;16365;51.598;7.668;2023-02-11T08:36:17;102688.44;;;12.83;45.23
29383;BME280;16365;51.598;7.668;2023-02-11T08:38:44;102698.44;;;12.84;46.24
29383;BME280;16365;51.598;7.668;2023-02-11T08:41:12;102695.38;;;12.85;45.22
29383;BME280;16365;51.598;7.668;2023-02-11T08:43:40;102695.38;;;12.85;46.15
29383;BME280;16365;51.598;7.668;2023-02-11T08:46:09;102700.94;;;12.85;46.18
29383;BME280;16365;51.598;7.668;2023-02-11T08:48:37;102700.66;;;12.87;45.70
29383;BME280;16365;51.598;7.668;2023-02-11T08:51:07;102702.31;;;12.88;45.85
29383;BME280;16365;51.598;7.668;2023-02-11T08:53:35;102705.91;;;12.89;45.39
29383;BME280;16365;51.598;7.668;2023-02-11T08:56:02;102702.84;;;12.90;46.11
29383;BME280;16365;51.598;7.668;2023-02-11T08:58:28;102705.63;;;12.90;45.38
29383;BME280;16365;51.598;7.668;2023-02-11T09:00:55;102714.53;;;12.92;45.65
29383;BME280;16365;51.598;7.668;2023-02-11T09:03:21;102709.47;;;12.94;45.19
29383;BME280;16365;51.598;7.668;2023-02-11T09:05:48;102708.91;;;12.97;45.36
29383;BME280;16365;51.598;7.668;2023-02-11T09:08:15;102706.94;;;12.98;46.23
29383;BME280;16365;51.598;7.668;2023-02-11T09:10:42;102716.63;;;13.00;45.91
29383;BME280;16365;51.598;7.668;2023-02-11T09:13:08;102710.50;;;13.03;45.47
29383;BME280;16365;51.598;7.668;2023-02-11T09:15:34;102713.81;;;13.05;46.08
29383;BME280;16365;51.598;7.668;2023-02-11T09:18:01;102715.16;;;13.08;45.63
29383;BME280;16365;51.598;7.668;2023-02-11T09:20:28;102710.13;;;13.10;46.25
29383;BME280;16365;51.598;7.668;2023-02-11T09:22:56;102713.47;;;13.12;45.65
29383;BME280;16365;51.598;7.668;2023-02-11T09:25:22;102721.22;;;13.15;46.84
29383;BME280;16365;51.598;7.668;2023-02-11T09:27:48;102728.66;;;13.20;46.48
29383;BME280;16365;51.598;7.668;2023-02-11T09:30:16;102725.34;;;13.23;45.95
29383;BME280;16365;51.598;7.668;2023-02-11T09:32:43;102728.38;;;13.26;45.91
29383;BME280;16365;51.598;7.668;2023-02-11T09:35:09;102728.59;;;13.30;46.12
29383;BME280;16365;51.598;7.668;2023-02-11T09:37:36;102735.53;;;13.32;46.05
29383;BME280;16365;51.598;7.668;2023-02-11T09:40:02;102727.41;;;13.36;46.10
29383;BME280;16365;51.598;7.668;2023-02-11T09:42:49;102732.69;;;13.37;46.50
29383;BME280;16365;51.598;7.668;2023-02-11T09:45:19;102738.78;;;13.40;46.30
29383;BME280;16365;51.598;7.668;2023-02-11T09:47:48;102737.34;;;13.42;45.72
29383;BME280;16365;51.598;7.668;2023-02-11T09:50:17;102742.63;;;13.44;45.80
29383;BME280;16365;51.598;7.668;2023-02-11T09:52:59;102744.31;;;13.45;46.49
29383;BME280;16365;51.598;7.668;2023-02-11T09:55:33;102744.00;;;13.46;46.46
29383;BME280;16365;51.598;7.668;2023-02-11T09:58:03;102748.13;;;13.49;46.16
29383;BME280;16365;51.598;7.668;2023-02-11T10:03:18;102751.16;;;13.52;46.28
29383;BME280;16365;51.598;7.668;2023-02-11T10:11:20;102760.53;;;13.61;46.17
29383;BME280;16365;51.598;7.668;2023-02-11T10:16:36;102762.09;;;13.68;45.53
29383;BME280;16365;51.598;7.668;2023-02-11T10:19:08;102759.31;;;13.68;45.76
29383;BME280;16365;51.598;7.668;2023-02-11T10:24:24;102770.47;;;13.68;45.91
29383;BME280;16365;51.598;7.668;2023-02-11T10:26:50;102770.47;;;13.68;45.64
29383;BME280;16365;51.598;7.668;2023-02-11T10:29:37;102763.78;;;13.69;45.55
29383;BME280;16365;51.598;7.668;2023-02-11T10:32:06;102780.19;;;13.70;46.55
29383;BME280;16365;51.598;7.668;2023-02-11T10:34:39;102787.75;;;13.70;46.18
29383;BME280;16365;51.598;7.668;2023-02-11T10:37:07;102784.34;;;13.73;47.02
29383;BME280;16365;51.598;7.668;2023-02-11T10:39:34;102788.50;;;13.75;46.91
29383;BME280;16365;51.598;7.668;2023-02-11T10:42:04;102787.06;;;13.78;47.00
29383;BME280;16365;51.598;7.668;2023-02-11T10:44:37;102780.06;;;13.80;46.56
29383;BME280;16365;51.598;7.668;2023-02-11T10:47:10;102792.28;;;13.84;46.77
29383;BME280;16365;51.598;7.668;2023-02-11T10:49:38;102783.59;;;13.86;46.58
29383;BME280;16365;51.598;7.668;2023-02-11T10:54:11;102780.50;;;13.69;47.61
29383;BME280;16365;51.598;7.668;2023-02-11T10:59:27;102787.50;;;13.66;48.36
29383;BME280;16365;51.598;7.668;2023-02-11T11:02:00;102788.31;;;13.67;47.61
29383;BME280;16365;51.598;7.668;2023-02-11T11:04:39;102789.22;;;13.62;48.59
29383;BME280;16365;51.598;7.668;2023-02-11T11:15:38;102795.94;;;13.61;48.65
29383;BME280;16365;51.598;7.668;2023-02-11T11:18:16;102791.41;;;13.65;49.20
29383;BME280;16365;51.598;7.668;2023-02-11T11:21:00;102786.38;;;13.67;48.88
29383;BME280;16365;51.598;7.668;2023-02-11T11:23:29;102791.34;;;13.70;48.50
29383;BME280;16365;51.598;7.668;2023-02-11T11:26:05;102792.19;;;13.71;49.08
29383;BME280;16365;51.598;7.668;2023-02-11T11:28:39;102794.66;;;13.72;48.65
29383;BME280;16365;51.598;7.668;2023-02-11T11:31:14;102794.38;;;13.74;49.44
29383;BME280;16365;51.598;7.668;2023-02-11T11:33:42;102790.97;;;13.77;48.92
29383;BME280;16365;51.598;7.668;2023-02-11T11:36:16;102785.13;;;13.78;48.71
29383;BME280;16365;51.598;7.668;2023-02-11T11:38:55;102777.28;;;13.80;48.89
29383;BME280;16365;51.598;7.668;2023-02-11T11:41:28;102779.16;;;13.85;48.95
29383;BME280;16365;51.598;7.668;2023-02-11T11:44:28;102774.41;;;13.85;49.45
29383;BME280;16365;51.598;7.668;2023-02-11T11:50:04;102781.31;;;13.93;49.06
29383;BME280;16365;51.598;7.668;2023-02-11T11:55:27;102773.06;;;14.02;48.46
29383;BME280;16365;51.598;7.668;2023-02-11T11:57:57;102773.59;;;14.04;48.62
29383;BME280;16365;51.598;7.668;2023-02-11T12:00:35;102765.25;;;14.04;48.97
29383;BME280;16365;51.598;7.668;2023-02-11T12:03:29;102768.53;;;14.06;49.06
29383;BME280;16365;51.598;7.668;2023-02-11T12:09:26;102768.69;;;14.14;48.78
29383;BME280;16365;51.598;7.668;2023-02-11T12:31:43;102766.13;;;14.37;48.97
29383;BME280;16365;51.598;7.668;2023-02-11T12:37:17;102783.03;;;14.46;48.62
29383;BME280;16365;51.598;7.668;2023-02-11T12:51:23;102783.25;;;14.49;48.19
29383;BME280;16365;51.598;7.668;2023-02-11T12:59:53;102775.47;;;14.46;48.43
29383;BME280;16365;51.598;7.668;2023-02-11T13:04:55;102773.22;;;14.48;48.06
29383;BME280;16365;51.598;7.668;2023-02-11T13:07:53;102769.34;;;14.44;48.84
29383;BME280;16365;51.598;7.668;2023-02-11T13:10:29;102766.56;;;14.44;48.66
29383;BME280;16365;51.598;7.668;2023-02-11T13:12:58;102754.25;;;14.45;48.20
29383;BME280;16365;51.598;7.668;2023-02-11T13:16:06;102758.50;;;14.43;48.93
29383;BME280;16365;51.598;7.668;2023-02-11T13:19:09;102754.88;;;14.42;48.82
29383;BME280;16365;51.598;7.668;2023-02-11T13:25:06;102764.25;;;14.51;48.66
29383;BME280;16365;51.598;7.668;2023-02-11T13:27:55;102755.88;;;14.51;48.75
29383;BME280;16365;51.598;7.668;2023-02-11T13:30:33;102757.22;;;14.54;48.81
29383;BME280;16365;51.598;7.668;2023-02-11T13:33:02;102751.88;;;14.57;48.49
29383;BME280;16365;51.598;7.668;2023-02-11T13:35:38;102751.88;;;14.57;49.03
29383;BME280;16365;51.598;7.668;2023-02-11T13:38:16;102751.56;;;14.59;48.39
29383;BME280;16365;51.598;7.668;2023-02-11T13:41:03;102759.09;;;14.58;48.78
29383;BME280;16365;51.598;7.668;2023-02-11T13:43:35;102763.25;;;14.61;48.57
29383;BME280;16365;51.598;7.668;2023-02-11T13:46:04;102767.69;;;14.62;48.71
29383;BME280;16365;51.598;7.668;2023-02-11T13:48:44;102766.88;;;14.61;49.11
29383;BME280;16365;51.598;7.668;2023-02-11T13:51:14;102773.19;;;14.67;48.39
29383;BME280;16365;51.598;7.668;2023-02-11T13:53:54;102768.75;;;14.66;49.07
29383;BME280;16365;51.598;7.668;2023-02-11T13:56:30;102765.34;;;14.69;48.82
29383;BME280;16365;51.598;7.668;2023-02-11T13:59:00;102760.78;;;14.73;48.54
29383;BME280;16365;51.598;7.668;2023-02-11T14:04:32;102754.28;;;14.78;48.53
29383;BME280;16365;51.598;7.668;2023-02-11T14:07:30;102764.88;;;14.81;48.64
29383;BME280;16365;51.598;7.668;2023-02-11T14:16:30;102760.63;;;14.83;48.70
29383;BME280;16365;51.598;7.668;2023-02-11T14:19:03;102762.72;;;14.91;48.66
29383;BME280;16365;51.598;7.668;2023-02-11T14:21:34;102759.91;;;14.91;48.52
29383;BME280;16365;51.598;7.668;2023-02-11T14:26:44;102768.72;;;14.99;48.31
29383;BME280;16365;51.598;7.668;2023-02-11T14:29:39;102768.94;;;15.02;48.50
29383;BME280;16365;51.598;7.668;2023-02-11T14:35:29;102765.75;;;15.09;48.34
29383;BME280;16365;51.598;7.668;2023-02-11T14:43:46;102756.44;;;15.13;47.76
29383;BME280;16365;51.598;7.668;2023-02-11T14:46:18;102758.09;;;15.14;47.97
29383;BME280;16365;51.598;7.668;2023-02-11T14:48:48;102770.91;;;15.15;47.96
29383;BME280;16365;51.598;7.668;2023-02-11T14:51:31;102768.44;;;15.14;47.89
29383;BME280;16365;51.598;7.668;2023-02-11T14:54:13;102764.50;;;15.15;48.01
29383;BME280;16365;51.598;7.668;2023-02-11T14:56:43;102768.63;;;15.17;47.84
29383;BME280;16365;51.598;7.668;2023-02-11T14:59:21;102763.38;;;15.16;47.76
29383;BME280;16365;51.598;7.668;2023-02-11T15:01:49;102775.38;;;15.16;47.88
29383;BME280;16365;51.598;7.668;2023-02-11T15:04:30;102774.03;;;15.14;47.92
29383;BME280;16365;51.598;7.668;2023-02-11T15:07:05;102772.34;;;15.13;47.95
29383;BME280;16365;51.598;7.668;2023-02-11T15:09:50;102775.78;;;15.10;48.25
29383;BME280;16365;51.598;7.668;2023-02-11T15:12:28;102776.06;;;15.08;48.07
29383;BME280;16365;51.598;7.668;2023-02-11T15:15:01;102779.72;;;15.09;47.55
29383;BME280;16365;51.598;7.668;2023-02-11T15:17:30;102788.38;;;15.07;47.68
29383;BME280;16365;51.598;7.668;2023-02-11T15:19:59;102787.88;;;15.05;48.25
29383;BME280;16365;51.598;7.668;2023-02-11T15:22:29;102785.91;;;15.06;48.02